Time;durP1;ratioP1;P1;durP2;ratioP2;P2;SDS_P1;SDS_P2;PMS_P1;PMS_P2;Temp;Humidity;BMP_temperature;BMP_pressure;BME280_temperature;BME280_humidity;BME280_pressure;Samples;Min_cycle;Max_cycle;Signal;HPM_P1;HPM_P2
2023/07/30 00:01:22;;;;;;;3.63;1.50;;;;;;;31.87;24.72;101086.53;4946945;28;20059;-75
2023/07/30 00:03:51;;;;;;;2.75;1.27;;;;;;;31.97;25.85;101087.78;4946364;28;20070;-76
2023/07/30 00:06:24;;;;;;;3.88;1.45;;;;;;;32.06;25.21;101083.72;4944391;28;20043;-78
2023/07/30 00:08:52;;;;;;;2.75;1.20;;;;;;;32.19;24.03;101091.97;4945758;28;20496;-78
2023/07/30 00:11:21;;;;;;;3.70;1.30;;;;;;;32.31;23.93;101084.09;4944671;28;20052;-77
2023/07/30 00:13:50;;;;;;;2.85;1.40;;;;;;;32.33;25.79;101084.00;4946104;28;20122;-75
2023/07/30 00:16:18;;;;;;;2.30;1.38;;;;;;;32.26;24.17;101079.94;4945785;28;20138;-76
2023/07/30 00:18:48;;;;;;;2.47;1.23;;;;;;;32.25;24.66;101081.75;4942965;28;20134;-78
2023/07/30 00:21:17;;;;;;;2.20;1.40;;;;;;;32.28;24.09;101078.91;4946591;28;20086;-75
2023/07/30 00:23:47;;;;;;;3.92;1.30;;;;;;;32.24;24.94;101080.03;4943182;28;20055;-76
2023/07/30 00:26:16;;;;;;;3.22;1.60;;;;;;;32.19;24.27;101065.19;4948012;28;20142;-74
2023/07/30 00:28:45;;;;;;;2.33;1.30;;;;;;;32.01;24.40;101067.94;4942004;28;20494;-76
2023/07/30 00:31:16;;;;;;;2.45;1.67;;;;;;;31.88;24.60;101067.69;4947997;28;20046;-74
2023/07/30 00:33:44;;;;;;;3.25;1.52;;;;;;;31.72;25.26;101072.16;4945317;28;20134;-75
2023/07/30 00:36:13;;;;;;;2.88;1.45;;;;;;;31.71;25.65;101076.66;4948158;28;20101;-77
2023/07/30 00:38:42;;;;;;;1.52;1.25;;;;;;;31.72;24.72;101066.81;4950594;28;20047;-74
2023/07/30 00:41:14;;;;;;;3.00;1.27;;;;;;;31.70;25.66;101063.34;4945365;28;20056;-77
2023/07/30 00:43:43;;;;;;;2.88;1.63;;;;;;;31.75;25.74;101066.66;4945508;28;20059;-77
2023/07/30 00:46:12;;;;;;;3.25;1.40;;;;;;;31.82;25.45;101065.38;4946298;28;20054;-76
2023/07/30 00:48:41;;;;;;;5.47;1.45;;;;;;;31.80;25.88;101064.59;4947516;28;20572;-76
2023/07/30 00:51:11;;;;;;;3.13;1.88;;;;;;;31.72;25.75;101067.66;4948999;28;20047;-76
2023/07/30 00:53:40;;;;;;;1.80;1.40;;;;;;;31.53;25.95;101066.94;4945325;28;20518;-76
2023/07/30 00:56:10;;;;;;;2.72;1.55;;;;;;;31.35;26.17;101075.91;4944968;28;20540;-77
2023/07/30 00:58:39;;;;;;;2.58;1.38;;;;;;;31.15;26.06;101071.59;4949605;28;20039;-76
2023/07/30 01:01:08;;;;;;;2.30;1.45;;;;;;;31.00;27.03;101076.78;4946781;28;20500;-75
2023/07/30 01:03:37;;;;;;;1.75;1.40;;;;;;;30.83;26.88;101076.75;4946173;28;20055;-75
2023/07/30 01:06:06;;;;;;;2.08;1.40;;;;;;;30.71;26.67;101074.69;4945969;28;20055;-75
2023/07/30 01:08:35;;;;;;;2.28;1.20;;;;;;;30.69;27.46;101081.00;4945382;28;20051;-76
2023/07/30 01:11:05;;;;;;;4.00;1.67;;;;;;;30.72;27.53;101079.06;4946042;28;20055;-76
2023/07/30 01:13:37;;;;;;;2.53;1.27;;;;;;;30.72;27.37;101073.72;4943778;28;20578;-77
2023/07/30 01:16:06;;;;;;;3.90;1.67;;;;;;;30.76;26.68;101078.84;4946880;28;20059;-77
2023/07/30 01:18:35;;;;;;;2.85;1.50;;;;;;;30.74;27.22;101086.09;4943760;28;20099;-76
2023/07/30 01:21:05;;;;;;;1.75;1.23;;;;;;;30.67;28.29;101088.22;4943647;28;20043;-76
2023/07/30 01:23:34;;;;;;;3.40;1.35;;;;;;;30.59;28.00;101082.38;4943296;28;20055;-77
2023/07/30 01:26:10;;;;;;;4.40;1.95;;;;;;;30.56;28.56;101086.97;4947918;28;20059;-77
2023/07/30 01:28:43;;;;;;;2.25;1.30;;;;;;;30.44;28.86;101080.44;4947653;28;20062;-75
2023/07/30 01:31:17;;;;;;;6.53;1.55;;;;;;;30.38;28.28;101081.63;4946654;28;20039;-75
2023/07/30 01:33:52;;;;;;;2.97;1.50;;;;;;;30.16;28.44;101076.38;4945726;28;20047;-77
2023/07/30 01:36:22;;;;;;;2.55;1.50;;;;;;;29.92;29.08;101077.56;4946596;28;20463;-77
2023/07/30 01:38:52;;;;;;;3.72;1.73;;;;;;;29.73;29.41;101077.50;4944666;28;20050;-75
2023/07/30 01:41:20;;;;;;;2.90;1.75;;;;;;;29.54;30.10;101080.13;4942631;28;20051;-75
2023/07/30 01:43:49;;;;;;;2.13;1.48;;;;;;;29.36;30.38;101092.47;4944728;28;20090;-76
2023/07/30 01:46:18;;;;;;;4.53;1.80;;;;;;;29.16;30.61;101083.53;4942590;28;20466;-76
2023/07/30 01:48:46;;;;;;;2.60;1.40;;;;;;;29.04;30.98;101092.88;4949186;28;20074;-76
2023/07/30 01:51:15;;;;;;;2.40;1.50;;;;;;;28.81;31.25;101087.66;4944289;28;20047;-79
2023/07/30 01:53:46;;;;;;;3.75;1.80;;;;;;;28.72;31.48;101082.69;4943150;28;20052;-74
2023/07/30 01:56:15;;;;;;;3.78;1.70;;;;;;;28.64;31.90;101099.00;4944327;28;20319;-75
2023/07/30 01:58:43;;;;;;;3.55;1.73;;;;;;;28.54;31.97;101094.94;4942517;28;20498;-75
2023/07/30 02:01:12;;;;;;;3.20;1.45;;;;;;;28.42;32.07;101099.81;4946097;28;20059;-76
2023/07/30 02:03:41;;;;;;;6.85;2.08;;;;;;;28.29;31.85;101101.25;4945154;28;20070;-75
2023/07/30 02:06:11;;;;;;;2.33;1.50;;;;;;;28.10;32.46;101106.38;4944742;28;20051;-75
2023/07/30 02:08:39;;;;;;;3.65;1.63;;;;;;;28.00;32.79;101110.31;4944942;28;20083;-76
2023/07/30 02:11:09;;;;;;;2.35;1.50;;;;;;;27.94;33.20;101106.09;4943723;28;20047;-74
2023/07/30 02:13:38;;;;;;;2.30;1.52;;;;;;;27.88;33.13;101110.78;4943615;28;20051;-75
2023/07/30 02:16:07;;;;;;;2.70;1.60;;;;;;;27.81;33.29;101115.44;4946504;28;20047;-75
2023/07/30 02:18:35;;;;;;;3.53;1.73;;;;;;;27.76;33.85;101123.59;4944905;28;20094;-76
2023/07/30 02:21:06;;;;;;;2.55;1.50;;;;;;;27.71;33.51;101125.50;4949805;28;20143;-76
2023/07/30 02:23:35;;;;;;;4.47;1.70;;;;;;;27.52;33.42;101127.97;4947672;28;20051;-75
2023/07/30 02:26:05;;;;;;;3.03;1.80;;;;;;;27.39;33.92;101120.47;4948130;28;20047;-77
2023/07/30 02:28:35;;;;;;;3.58;1.55;;;;;;;27.27;33.86;101130.59;4946866;28;20096;-77
2023/07/30 02:31:04;;;;;;;2.88;1.60;;;;;;;27.16;34.18;101133.59;4943927;28;20344;-76
2023/07/30 02:33:32;;;;;;;3.33;1.63;;;;;;;26.97;34.38;101137.78;4943297;28;20047;-77
2023/07/30 02:36:01;;;;;;;4.63;1.58;;;;;;;26.85;34.59;101151.47;4948159;28;20565;-75
2023/07/30 02:38:29;;;;;;;3.53;1.42;;;;;;;26.76;34.97;101155.28;4945272;28;20290;-75
2023/07/30 02:40:58;;;;;;;2.25;1.55;;;;;;;26.58;34.79;101146.09;4947092;28;20122;-74
2023/07/30 02:43:31;;;;;;;3.60;1.45;;;;;;;26.42;35.42;101150.97;4949326;28;20064;-76
2023/07/30 02:46:01;;;;;;;4.22;1.50;;;;;;;26.20;35.79;101149.88;4947081;28;20047;-76
2023/07/30 02:48:29;;;;;;;2.97;1.45;;;;;;;25.99;36.22;101152.22;4950745;28;20502;-76
2023/07/30 02:50:58;;;;;;;4.95;1.42;;;;;;;25.87;36.28;101153.44;4947360;28;20098;-78
2023/07/30 02:53:29;;;;;;;3.08;1.60;;;;;;;25.79;36.59;101154.53;4948015;28;20134;-76
2023/07/30 02:55:57;;;;;;;7.53;1.77;;;;;;;25.65;36.80;101150.47;4950884;28;20130;-77
2023/07/30 02:58:25;;;;;;;3.78;1.67;;;;;;;25.55;36.94;101156.94;4945665;28;20115;-77
2023/07/30 03:00:54;;;;;;;3.88;1.80;;;;;;;25.41;37.15;101165.25;4945865;28;20138;-76
2023/07/30 03:03:32;;;;;;;2.13;1.27;;;;;;;25.28;37.40;101154.06;4951470;28;20113;-76
2023/07/30 03:06:00;;;;;;;3.22;2.05;;;;;;;25.14;37.33;101161.47;4949589;28;20079;-74
2023/07/30 03:08:29;;;;;;;3.20;1.50;;;;;;;25.06;38.18;101161.66;4945617;28;20075;-76
2023/07/30 03:11:00;;;;;;;3.72;1.60;;;;;;;24.98;37.81;101173.34;4951296;28;20050;-76
2023/07/30 03:13:28;;;;;;;2.83;1.55;;;;;;;24.87;37.95;101174.44;4950956;28;20055;-75
2023/07/30 03:16:00;;;;;;;4.10;1.58;;;;;;;24.77;37.61;101166.78;4944758;28;20592;-76
2023/07/30 03:18:30;;;;;;;3.55;1.83;;;;;;;24.70;38.49;101166.03;4945343;28;20139;-76
2023/07/30 03:21:01;;;;;;;2.65;1.60;;;;;;;24.62;38.15;101175.91;4946001;28;20516;-76
2023/07/30 03:23:29;;;;;;;3.53;1.60;;;;;;;24.49;38.03;101175.31;4947208;28;20545;-76
2023/07/30 03:26:00;;;;;;;3.38;1.60;;;;;;;24.28;39.08;101181.00;4945107;28;20074;-77
2023/07/30 03:28:28;;;;;;;5.03;1.65;;;;;;;24.17;38.87;101178.63;4946435;28;20059;-76
2023/07/30 03:30:57;;;;;;;3.05;1.70;;;;;;;24.02;38.61;101183.28;4948980;28;20055;-77
2023/07/30 03:33:25;;;;;;;4.60;1.50;;;;;;;23.98;39.31;101191.31;4949931;28;20572;-78
2023/07/30 03:36:06;;;;;;;;;;;;;;;;;;;;;
2023/07/30 03:38:35;;;;;;;3.58;1.67;;;;;;;23.94;38.99;101200.22;4952686;28;20166;-82
2023/07/30 03:41:03;;;;;;;3.63;1.60;;;;;;;23.89;39.03;101196.75;4953251;28;20077;-82
2023/07/30 03:43:32;;;;;;;4.50;1.70;;;;;;;23.88;39.21;101200.31;4954115;28;20475;-84
2023/07/30 03:46:03;;;;;;;4.35;1.75;;;;;;;23.80;40.04;101188.13;4944378;28;20962;-82
2023/07/30 03:48:31;;;;;;;2.85;1.60;;;;;;;23.80;40.01;101203.09;4946594;28;20556;-84
2023/07/30 03:51:02;;;;;;;2.97;1.55;;;;;;;23.76;39.41;101201.41;4941930;28;20470;-83
2023/07/30 03:53:30;;;;;;;2.75;1.80;;;;;;;23.72;39.81;101207.63;4933758;28;20051;-84
2023/07/30 03:56:04;;;;;;;1.90;1.20;;;;;;;23.66;39.24;101195.38;4941187;28;20055;-81
2023/07/30 03:58:32;;;;;;;2.70;1.63;;;;;;;23.63;39.83;101204.22;4939851;28;20131;-80
2023/07/30 04:01:01;;;;;;;3.58;1.60;;;;;;;23.59;40.26;101210.50;4940864;28;20114;-78
2023/07/30 04:03:29;;;;;;;3.95;1.67;;;;;;;23.55;40.59;101205.28;4940450;28;20047;-80
2023/07/30 04:05:57;;;;;;;2.83;1.58;;;;;;;23.51;40.62;101208.88;4939928;28;20071;-79
2023/07/30 04:08:28;;;;;;;2.53;1.33;;;;;;;23.47;40.25;101213.31;4946537;28;20087;-77
2023/07/30 04:10:56;;;;;;;3.78;1.67;;;;;;;23.44;41.00;101216.03;4942593;28;20066;-79
2023/07/30 04:13:24;;;;;;;5.20;1.70;;;;;;;23.40;40.60;101222.25;4942374;28;20537;-78
2023/07/30 04:15:53;;;;;;;5.18;1.95;;;;;;;23.33;41.28;101221.47;4941484;28;20550;-80
2023/07/30 04:18:22;;;;;;;3.55;1.75;;;;;;;23.28;41.59;101222.44;4943419;28;20051;-78
2023/07/30 04:20:52;;;;;;;2.28;1.50;;;;;;;23.21;41.19;101225.19;4941216;28;20062;-78
2023/07/30 04:23:20;;;;;;;3.97;1.58;;;;;;;23.16;41.21;101232.28;4942286;28;20051;-77
2023/07/30 04:25:53;;;;;;;5.75;1.80;;;;;;;23.12;41.80;101235.88;4943162;28;20450;-76
2023/07/30 04:28:20;;;;;;;;;;;;;;;23.08;42.16;101234.16;4940462;28;20051;-79
2023/07/30 04:30:49;;;;;;;6.20;2.08;;;;;;;23.04;41.72;101232.47;4939739;28;19965;-78
2023/07/30 04:33:19;;;;;;;4.28;1.45;;;;;;;22.99;41.69;101237.81;4942699;28;20051;-79
2023/07/30 04:35:47;;;;;;;3.75;2.30;;;;;;;22.98;42.29;101240.44;4947027;28;20043;-80
2023/07/30 04:38:16;;;;;;;2.58;1.60;;;;;;;22.92;42.11;101248.44;4945851;28;20537;-78
2023/07/30 04:40:44;;;;;;;2.40;1.77;;;;;;;22.87;42.34;101250.28;4945138;28;20055;-80
2023/07/30 04:43:14;;;;;;;2.00;1.35;;;;;;;22.79;42.69;101253.91;4944564;28;20047;-82
2023/07/30 04:45:44;;;;;;;4.30;1.67;;;;;;;22.70;42.77;101259.28;4945443;28;20043;-83
2023/07/30 04:48:14;;;;;;;4.72;1.70;;;;;;;22.59;43.30;101262.06;4946425;28;20506;-84
2023/07/30 04:50:42;;;;;;;3.17;1.60;;;;;;;22.50;42.96;101258.66;4948102;28;20587;-80
2023/07/30 04:53:11;;;;;;;5.15;2.50;;;;;;;22.45;43.91;101268.38;4945677;28;20547;-82
2023/07/30 04:55:39;;;;;;;4.07;1.60;;;;;;;22.32;43.65;101262.38;4943954;28;20565;-82
2023/07/30 04:58:08;;;;;;;5.72;1.83;;;;;;;22.33;44.17;101267.66;4948912;28;20054;-80
2023/07/30 05:00:38;;;;;;;6.22;1.80;;;;;;;22.27;44.17;101275.63;4948174;28;20150;-82
2023/07/30 05:03:06;;;;;;;2.45;1.58;;;;;;;22.17;44.95;101272.19;4946891;28;20519;-79
2023/07/30 05:05:35;;;;;;;3.88;1.67;;;;;;;22.05;45.64;101280.19;4948476;28;20961;-78
2023/07/30 05:08:06;;;;;;;6.03;2.28;;;;;;;21.96;44.74;101286.41;4947073;28;20487;-82
2023/07/30 05:10:35;;;;;;;1.92;1.55;;;;;;;21.92;45.27;101294.34;4946085;28;20042;-80
2023/07/30 05:13:03;;;;;;;3.40;1.63;;;;;;;21.82;45.65;101283.03;4945889;28;20062;-82
2023/07/30 05:15:31;;;;;;;3.15;1.35;;;;;;;21.75;46.08;101297.13;4945920;28;20078;-83
2023/07/30 05:18:01;;;;;;;4.18;1.40;;;;;;;21.72;46.54;101291.91;4948712;28;20077;-83
2023/07/30 05:20:30;;;;;;;2.42;1.38;;;;;;;21.68;45.92;101296.31;4947864;28;20142;-81
2023/07/30 05:22:58;;;;;;;2.60;1.55;;;;;;;21.66;46.16;101302.47;4948132;28;20367;-81
2023/07/30 05:25:27;;;;;;;2.17;1.35;;;;;;;21.58;46.21;101293.75;4949596;28;20178;-81
2023/07/30 05:27:55;;;;;;;3.17;1.35;;;;;;;21.52;46.29;101295.56;4949958;28;20048;-82
2023/07/30 05:30:23;;;;;;;2.60;1.23;;;;;;;21.47;46.40;101296.47;4953146;28;20526;-84
2023/07/30 05:32:52;;;;;;;2.75;1.60;;;;;;;21.42;46.37;101303.53;4943404;28;20142;-84
2023/07/30 05:35:22;;;;;;;3.15;1.40;;;;;;;21.37;46.78;101311.41;4951297;28;20054;-84
2023/07/30 05:37:50;;;;;;;2.53;1.23;;;;;;;21.32;46.71;101311.44;4950702;28;20127;-82
2023/07/30 05:40:19;;;;;;;3.28;1.52;;;;;;;21.23;47.04;101315.88;4949041;28;20101;-82
2023/07/30 05:42:47;;;;;;;3.03;1.20;;;;;;;21.18;47.37;101313.28;4954694;28;20405;-82
2023/07/30 05:45:18;;;;;;;1.63;1.20;;;;;;;21.18;47.51;101312.41;4953989;28;20043;-81
2023/07/30 05:47:47;;;;;;;3.05;1.10;;;;;;;21.19;47.37;101316.78;4949311;28;20110;-80
2023/07/30 05:50:15;;;;;;;1.63;1.25;;;;;;;21.19;47.54;101322.03;4956074;28;20044;-82
2023/07/30 05:52:45;;;;;;;3.75;1.25;;;;;;;21.18;47.53;101321.19;4964170;28;20576;-83
2023/07/30 05:55:14;;;;;;;2.53;1.55;;;;;;;21.14;47.36;101316.81;4973496;28;20042;-82
2023/07/30 05:57:42;;;;;;;2.08;1.20;;;;;;;21.05;47.63;101317.75;4951954;28;20078;-82
2023/07/30 06:00:11;;;;;;;1.55;1.05;;;;;;;20.96;47.85;101325.69;4943965;28;20049;-83
2023/07/30 06:02:55;;;;;;;1.33;1.20;;;;;;;20.91;48.04;101319.53;4948478;28;20537;-82
2023/07/30 06:05:25;;;;;;;3.40;1.73;;;;;;;20.83;48.28;101314.34;4943505;28;20106;-81
2023/07/30 06:07:55;;;;;;;2.95;1.52;;;;;;;20.75;48.36;101324.00;4945578;28;20482;-82
2023/07/30 06:10:23;;;;;;;1.88;1.13;;;;;;;20.69;48.80;101324.91;4940827;28;20127;-83
2023/07/30 06:12:52;;;;;;;3.10;1.40;;;;;;;20.63;48.82;101319.66;4945448;28;20051;-82
2023/07/30 06:15:20;;;;;;;3.03;1.58;;;;;;;20.57;49.00;101332.84;4944839;28;20134;-82
2023/07/30 06:17:49;;;;;;;1.58;1.15;;;;;;;20.53;48.90;101328.44;4950097;28;20058;-81
2023/07/30 06:20:17;;;;;;;1.90;1.30;;;;;;;20.42;49.47;101322.31;4947652;28;20059;-81
2023/07/30 06:22:45;;;;;;;3.95;1.55;;;;;;;20.44;49.24;101331.06;4944554;28;20055;-82
2023/07/30 06:25:16;;;;;;;3.67;1.52;;;;;;;20.40;49.51;101339.84;4950902;28;20047;-83
2023/07/30 06:27:45;;;;;;;2.17;1.30;;;;;;;20.36;49.56;101338.94;4949390;28;20047;-83
2023/07/30 06:30:14;;;;;;;2.75;1.38;;;;;;;20.29;49.90;101331.97;4949798;28;20158;-82
2023/07/30 06:32:42;;;;;;;3.10;1.52;;;;;;;20.22;50.25;101330.22;4948760;28;20047;-83
2023/07/30 06:35:10;;;;;;;2.85;1.33;;;;;;;20.15;50.89;101334.59;4950771;28;20059;-81
2023/07/30 06:37:39;;;;;;;2.70;1.25;;;;;;;20.05;50.86;101330.25;4949514;28;20051;-81
2023/07/30 06:40:09;;;;;;;3.17;1.42;;;;;;;20.00;51.58;101340.75;4951314;28;20071;-83
2023/07/30 06:42:39;;;;;;;2.75;1.10;;;;;;;19.97;50.84;101342.50;4949811;28;20513;-83
2023/07/30 06:45:08;;;;;;;4.00;1.23;;;;;;;19.94;51.15;101340.75;4949922;28;20075;-83
2023/07/30 06:47:37;;;;;;;3.25;1.23;;;;;;;19.87;50.91;101344.25;4950208;28;20741;-82
2023/07/30 06:50:08;;;;;;;2.10;1.02;;;;;;;19.81;50.88;101350.38;4951486;28;20971;-82
2023/07/30 06:52:39;;;;;;;3.55;1.38;;;;;;;19.75;51.67;101352.13;4947723;28;20077;-82
2023/07/30 06:55:07;;;;;;;2.38;1.38;;;;;;;19.67;51.42;101346.81;4949708;28;20043;-82
2023/07/30 06:57:38;;;;;;;3.10;1.42;;;;;;;19.61;52.27;101342.44;4945535;28;20138;-82
2023/07/30 07:00:07;;;;;;;1.95;1.13;;;;;;;19.52;52.74;101344.19;4947636;28;20091;-81
2023/07/30 07:02:36;;;;;;;2.88;1.30;;;;;;;19.49;52.97;101355.53;4947642;28;20062;-82
2023/07/30 07:05:07;;;;;;;3.15;1.30;;;;;;;19.46;52.80;101343.28;4951459;28;20051;-84
2023/07/30 07:07:35;;;;;;;3.83;1.63;;;;;;;19.45;52.94;101346.78;4953760;28;20135;-85
2023/07/30 07:10:03;;;;;;;2.38;1.45;;;;;;;19.43;52.29;101338.03;4951030;28;20047;-80
2023/07/30 07:12:32;;;;;;;2.70;0.98;;;;;;;19.41;52.88;101349.41;4948629;28;20074;-82
2023/07/30 07:15:04;;;;;;;2.00;1.02;;;;;;;19.34;52.28;101343.25;4947787;28;20055;-82
2023/07/30 07:17:33;;;;;;;1.40;0.70;;;;;;;19.29;52.59;101350.25;4947270;28;20105;-81
2023/07/30 07:20:01;;;;;;;1.73;1.20;;;;;;;19.27;52.67;101346.75;4947171;28;20143;-81
2023/07/30 07:22:29;;;;;;;4.55;1.10;;;;;;;19.25;52.19;101343.22;4947068;28;20062;-81
2023/07/30 07:24:58;;;;;;;4.47;1.42;;;;;;;19.24;52.20;101342.38;4952017;28;20053;-81
2023/07/30 07:27:28;;;;;;;2.20;1.05;;;;;;;19.22;52.64;101340.59;4945180;28;20055;-80
2023/07/30 07:29:56;;;;;;;4.40;1.40;;;;;;;19.21;52.21;101341.47;4946019;28;20433;-81
2023/07/30 07:32:26;;;;;;;3.28;1.35;;;;;;;19.17;52.68;101337.06;4946589;28;20564;-81
2023/07/30 07:34:55;;;;;;;4.28;1.50;;;;;;;19.14;52.58;101339.69;4947774;28;20062;-80
2023/07/30 07:37:23;;;;;;;2.90;1.25;;;;;;;19.09;52.83;101341.44;4947056;28;20047;-82
2023/07/30 07:39:52;;;;;;;2.38;1.30;;;;;;;19.05;52.57;101345.78;4950338;28;20052;-80
2023/07/30 07:42:21;;;;;;;2.88;1.50;;;;;;;18.99;52.19;101346.63;4948996;28;20089;-80
2023/07/30 07:44:49;;;;;;;2.05;1.25;;;;;;;18.98;52.66;101344.88;4946666;28;20054;-81
2023/07/30 07:47:18;;;;;;;2.78;1.45;;;;;;;18.91;53.38;101332.59;4947902;28;20133;-79
2023/07/30 07:49:48;;;;;;;4.07;1.15;;;;;;;19.00;52.70;101337.88;4950035;28;20055;-81
2023/07/30 07:52:17;;;;;;;2.80;1.08;;;;;;;19.00;52.18;101332.63;4948134;28;20055;-82
2023/07/30 07:54:45;;;;;;;2.08;1.33;;;;;;;18.99;52.34;101330.91;4949429;28;20051;-80
2023/07/30 07:57:14;;;;;;;3.83;1.33;;;;;;;18.95;52.39;101331.75;4947670;28;20126;-82
2023/07/30 07:59:44;;;;;;;4.57;1.23;;;;;;;18.93;52.71;101343.13;4949093;28;20047;-79
2023/07/30 08:02:18;;;;;;;2.50;1.30;;;;;;;18.89;52.62;101342.22;4948014;28;20047;-79
2023/07/30 08:04:48;;;;;;;1.20;0.75;;;;;;;18.88;52.82;101336.97;4949910;28;20142;-82
2023/07/30 08:07:17;;;;;;;1.67;0.82;;;;;;;18.87;53.54;101338.69;4942710;28;20044;-82
2023/07/30 08:09:45;;;;;;;2.65;1.25;;;;;;;18.86;53.84;101347.44;4949372;28;20733;-80
2023/07/30 08:12:14;;;;;;;2.05;1.13;;;;;;;18.83;53.50;101350.06;4948766;28;20102;-82
2023/07/30 08:14:42;;;;;;;1.73;1.30;;;;;;;18.78;53.83;101344.81;4946995;28;20052;-82
2023/07/30 08:17:10;;;;;;;3.08;1.30;;;;;;;18.77;53.56;101347.41;4946388;28;20143;-82
2023/07/30 08:19:39;;;;;;;3.53;1.42;;;;;;;18.74;53.46;101349.97;4947301;28;20130;-83
2023/07/30 08:22:09;;;;;;;2.03;1.20;;;;;;;18.74;53.47;101352.59;4945683;28;20051;-81
2023/07/30 08:24:37;;;;;;;3.40;1.10;;;;;;;18.70;53.50;101349.06;4942935;28;20098;-81
2023/07/30 08:27:06;;;;;;;2.97;1.10;;;;;;;18.68;54.15;101350.81;4945082;28;20522;-82
2023/07/30 08:29:34;;;;;;;1.48;1.17;;;;;;;18.63;54.08;101345.53;4949175;28;20082;-85
2023/07/30 08:32:03;;;;;;;2.30;1.05;;;;;;;18.54;54.23;101345.50;4948913;28;20114;-82
2023/07/30 08:34:31;;;;;;;3.40;1.60;;;;;;;18.51;55.03;101337.63;4948734;28;20528;-82
2023/07/30 08:37:00;;;;;;;3.05;1.20;;;;;;;18.45;54.85;101347.19;4942249;28;20055;-81
2023/07/30 08:39:34;;;;;;;1.88;0.98;;;;;;;18.37;54.93;101345.41;4945423;28;20154;-82
2023/07/30 08:42:02;;;;;;;1.63;1.15;;;;;;;18.33;55.47;101345.38;4940686;28;20043;-81
2023/07/30 08:44:31;;;;;;;1.60;1.10;;;;;;;18.30;54.98;101358.41;4948522;28;20216;-82
2023/07/30 08:46:59;;;;;;;4.10;1.02;;;;;;;18.30;55.16;101361.94;4940877;28;20057;-81
2023/07/30 08:49:32;;;;;;;1.73;1.10;;;;;;;18.30;55.46;101361.03;4955304;28;20082;-86
2023/07/30 08:52:03;;;;;;;1.90;1.10;;;;;;;18.27;54.93;101358.41;4948438;28;20047;-83
2023/07/30 08:54:34;;;;;;;3.00;1.17;;;;;;;18.26;55.47;101359.28;4948063;28;20580;-82
2023/07/30 08:57:03;;;;;;;3.45;1.20;;;;;;;18.27;55.32;101363.66;4944622;28;20048;-83
2023/07/30 08:59:35;;;;;;;3.20;1.25;;;;;;;18.26;55.86;101361.91;4946488;28;20448;-81
2023/07/30 09:02:04;;;;;;;2.97;1.00;;;;;;;18.23;55.89;101365.34;4946666;28;20075;-82
2023/07/30 09:04:39;;;;;;;2.03;1.15;;;;;;;18.22;55.89;101361.00;4946715;28;20062;-80
2023/07/30 09:07:11;;;;;;;1.48;1.05;;;;;;;18.23;55.82;101361.84;4945974;28;20050;-79
2023/07/30 09:09:42;;;;;;;2.47;1.10;;;;;;;18.23;57.54;101351.38;4942661;28;20054;-82
2023/07/30 09:12:16;;;;;;;1.73;1.10;;;;;;;18.21;56.81;101357.50;4944776;28;20070;-82
2023/07/30 09:14:45;;;;;;;3.20;1.23;;;;;;;18.20;56.78;101352.25;4945110;28;20211;-79
2023/07/30 09:17:18;;;;;;;2.13;1.17;;;;;;;18.17;56.27;101352.22;4945505;28;20080;-82
2023/07/30 09:19:47;;;;;;;3.40;1.27;;;;;;;18.14;55.51;101354.81;4944906;28;20748;-81
2023/07/30 09:22:22;;;;;;;1.60;0.95;;;;;;;18.14;56.36;101360.03;4948892;28;20044;-82
2023/07/30 09:24:52;;;;;;;3.28;1.60;;;;;;;18.12;56.59;101354.81;4947180;28;20686;-79
2023/07/30 09:27:25;;;;;;;1.52;1.02;;;;;;;18.10;57.33;101351.31;4945579;28;20054;-82
2023/07/30 09:29:55;;;;;;;2.42;1.23;;;;;;;18.07;56.97;101355.63;4947262;28;20066;-81
2023/07/30 09:32:28;;;;;;;3.20;1.33;;;;;;;18.05;56.94;101357.34;4947932;28;20143;-83
2023/07/30 09:34:57;;;;;;;1.15;1.05;;;;;;;18.02;57.29;101355.59;4946907;28;20563;-82
2023/07/30 09:37:25;;;;;;;3.38;1.48;;;;;;;18.00;56.71;101354.69;4943827;28;20417;-81
2023/07/30 09:39:59;;;;;;;1.83;1.00;;;;;;;17.97;57.73;101359.91;4945155;28;20047;-80
2023/07/30 09:42:29;;;;;;;3.67;1.67;;;;;;;17.95;58.10;101356.41;4948556;28;20058;-80
2023/07/30 09:45:03;;;;;;;3.28;1.20;;;;;;;17.91;58.46;101357.22;4947179;28;20114;-80
2023/07/30 09:47:33;;;;;;;4.10;1.33;;;;;;;17.87;58.51;101358.09;4948064;28;20058;-80
2023/07/30 09:50:02;;;;;;;3.13;1.10;;;;;;;17.78;60.65;101359.72;4944014;28;20039;-79
2023/07/30 09:52:31;;;;;;;2.33;1.23;;;;;;;17.74;59.96;101371.00;4945330;28;20077;-79
2023/07/30 09:55:07;;;;;;;2.63;1.45;;;;;;;17.72;58.88;101358.78;4937681;28;20091;-79
2023/07/30 09:57:36;;;;;;;2.05;1.10;;;;;;;17.72;58.82;101354.41;4942367;28;20051;-82
2023/07/30 10:00:05;;;;;;;1.60;0.93;;;;;;;17.73;58.69;101345.72;4945440;28;20062;-81
2023/07/30 10:02:38;;;;;;;5.00;0.98;;;;;;;17.72;58.50;101359.63;4943241;28;20051;-81
2023/07/30 10:05:13;;;;;;;1.88;1.10;;;;;;;17.71;58.71;101354.41;4944639;28;21401;-79
2023/07/30 10:07:46;;;;;;;4.03;1.27;;;;;;;17.70;58.64;101350.91;4946597;28;20047;-81
2023/07/30 10:10:21;;;;;;;2.10;1.35;;;;;;;17.68;59.15;101359.59;4946658;28;20103;-79
2023/07/30 10:12:52;;;;;;;3.17;1.00;;;;;;;17.66;58.97;101351.75;4947382;28;20054;-80
2023/07/30 10:15:23;;;;;;;3.15;0.90;;;;;;;17.69;58.80;101362.25;4946449;28;20054;-80
2023/07/30 10:17:52;;;;;;;1.85;1.20;;;;;;;17.68;59.02;101354.38;4940747;28;20623;-81
2023/07/30 10:20:26;;;;;;;3.50;1.10;;;;;;;17.67;59.07;101363.09;4946194;28;20043;-81
2023/07/30 10:22:55;;;;;;;1.67;0.90;;;;;;;17.66;59.10;101366.56;4944893;28;20513;-81
2023/07/30 10:25:31;;;;;;;1.63;1.05;;;;;;;17.60;58.85;101356.91;4942342;28;20067;-81
2023/07/30 10:28:01;;;;;;;3.60;1.05;;;;;;;17.61;60.35;101360.41;4940111;28;20058;-80
2023/07/30 10:30:33;;;;;;;1.45;1.08;;;;;;;17.57;59.72;101356.91;4947460;28;20104;-81
2023/07/30 10:33:05;;;;;;;2.20;1.55;;;;;;;17.55;60.15;101354.25;4946141;28;20123;-81
2023/07/30 10:35:45;;;;;;;2.67;1.15;;;;;;;17.55;59.69;101351.63;4951306;28;20047;-82
2023/07/30 10:38:20;;;;;;;2.20;1.08;;;;;;;17.52;59.84;101361.19;4941972;28;20061;-79
2023/07/30 10:41:09;;;;;;;2.72;1.30;;;;;;;17.49;59.99;101369.00;4946011;28;20501;-81
2023/07/30 10:43:38;;;;;;;2.78;1.30;;;;;;;17.44;59.66;101361.09;4943416;28;20085;-80
2023/07/30 10:46:07;;;;;;;1.20;0.93;;;;;;;17.43;59.68;101358.47;4943303;28;20049;-81
2023/07/30 10:48:36;;;;;;;1.42;0.95;;;;;;;17.44;59.83;101362.84;4943526;28;20078;-81
2023/07/30 10:51:09;;;;;;;1.23;0.80;;;;;;;17.44;59.44;101355.88;4943286;28;20053;-80
2023/07/30 10:53:39;;;;;;;3.08;1.60;;;;;;;17.44;60.04;101357.63;4944226;28;20091;-82
2023/07/30 10:56:10;;;;;;;2.22;1.30;;;;;;;17.42;59.82;101357.59;4946067;28;20324;-82
2023/07/30 10:58:39;;;;;;;6.93;1.23;;;;;;;17.41;60.33;101362.78;4944324;28;20075;-81
2023/07/30 11:01:09;;;;;;;4.20;1.40;;;;;;;17.34;60.00;101361.84;4943897;28;20504;-82
2023/07/30 11:03:39;;;;;;;2.83;1.23;;;;;;;17.30;60.00;101358.34;4946989;28;20061;-81
2023/07/30 11:06:07;;;;;;;1.75;1.08;;;;;;;17.28;60.46;101352.22;4949191;28;20066;-82
2023/07/30 11:08:37;;;;;;;3.17;1.02;;;;;;;17.25;60.91;101360.03;4948435;28;20047;-82
2023/07/30 11:11:08;;;;;;;2.55;1.35;;;;;;;17.22;61.09;101357.34;4948277;28;20055;-82
2023/07/30 11:13:40;;;;;;;1.95;1.15;;;;;;;17.21;61.44;101359.97;4947993;28;20082;-81
2023/07/30 11:16:10;;;;;;;1.83;1.10;;;;;;;17.20;60.88;101361.69;4951604;28;20098;-82
2023/07/30 11:18:39;;;;;;;2.10;1.20;;;;;;;17.17;61.84;101362.53;4947597;28;20055;-80
2023/07/30 11:21:07;;;;;;;2.25;1.42;;;;;;;17.16;61.73;101362.53;4948423;28;20119;-81
2023/07/30 11:23:40;;;;;;;1.80;1.05;;;;;;;17.12;61.15;101365.97;4944112;28;20059;-80
2023/07/30 11:26:15;;;;;;;2.25;1.42;;;;;;;17.10;62.54;101368.56;4948334;28;20067;-80
2023/07/30 11:28:43;;;;;;;2.53;1.13;;;;;;;17.08;61.86;101364.16;4948903;28;20043;-80
2023/07/30 11:31:12;;;;;;;2.10;1.30;;;;;;;17.04;62.11;101368.50;4945304;28;20138;-81
2023/07/30 11:33:43;;;;;;;3.22;1.10;;;;;;;17.03;62.44;101369.34;4946284;28;20709;-82
2023/07/30 11:36:14;;;;;;;1.20;0.90;;;;;;;17.04;63.17;101367.59;4948304;28;20059;-81
2023/07/30 11:38:43;;;;;;;1.92;0.80;;;;;;;17.03;63.19;101371.09;4947833;28;20138;-82